Everett, Washington
Current Conditions -  °F | °C
As of 8:53 PM on Saturday 25 Oct 2014 (Local Time) from KPAE Reporting Station
Light Rain Light Rain  
Wind Chill: 53°   Ceiling: 1200
Heat Index: 53°   Visibility: 10mi
Dew Point: 49°   Wind: 24mph
Humidity: 86%   Direction: 200°SSW
Pressure: 29.45"   Gusts: 37mph
Location:  47.98°N, 122.2°W
Report Text: KPAE 260353Z AUTO 20021G32KT 10SM -RA OVC012 12/09 A2945 RMK AO2 PK WND 19040/0300 RAB49 PRESRR SLP974 P0000 T01170094
Loading
Personal Weather Stations






























Interactive Weather Map New forecast layout! Learn more

10-Day Weather Forecast

Advertisements
Track Severe Weather on mobile